Time;durP1;ratioP1;P1;durP2;ratioP2;P2;SDS_P1;SDS_P2;PMS_P1;PMS_P2;Temp;Humidity;BMP_temperature;BMP_pressure;BME280_temperature;BME280_humidity;BME280_pressure;Samples;Min_cycle;Max_cycle;Signal;HPM_P1;HPM_P2
2022/08/22 00:02:29;;;;;;;3.97;1.67;;;;;;;;;;5091771;28;20651;-65
2022/08/22 00:05:04;;;;;;;4.75;1.70;;;;;;;;;;5081353;28;20617;-65
2022/08/22 00:07:47;;;;;;;8.82;2.10;;;;;;;;;;5080329;28;20101;-65
2022/08/22 00:10:30;;;;;;;7.18;1.90;;;;;;;;;;5083861;28;20020;-65
2022/08/22 00:12:56;;;;;;;5.70;1.90;;;;;;;;;;5089929;28;20027;-65
2022/08/22 00:15:27;;;;;;;6.13;1.73;;;;;;;;;;5087076;28;20051;-65
2022/08/22 00:17:56;;;;;;;9.02;2.05;;;;;;;;;;5090944;28;20020;-65
2022/08/22 00:20:50;;;;;;;5.50;1.77;;;;;;;;;;5083698;28;20116;-65
2022/08/22 00:23:35;;;;;;;6.88;2.15;;;;;;;;;;5078484;28;20110;-64
2022/08/22 00:26:21;;;;;;;7.35;2.05;;;;;;;;;;5080613;28;20497;-65
2022/08/22 00:29:01;;;;;;;4.40;1.80;;;;;;;;;;5087691;28;20081;-65
2022/08/22 00:31:35;;;;;;;6.90;1.90;;;;;;;;;;5079042;28;20066;-63
2022/08/22 00:34:04;;;;;;;4.97;1.45;;;;;;;;;;5089569;28;20100;-64
2022/08/22 00:36:48;;;;;;;5.88;1.90;;;;;;;;;;5086041;28;20024;-64
2022/08/22 00:39:19;;;;;;;7.68;1.92;;;;;;;;;;5082594;28;20092;-64
2022/08/22 00:42:03;;;;;;;5.63;1.80;;;;;;;;;;5086104;28;20091;-64
2022/08/22 00:44:46;;;;;;;9.85;2.10;;;;;;;;;;5088570;28;20054;-64
2022/08/22 00:47:20;;;;;;;11.80;2.28;;;;;;;;;;5090934;28;20014;-64
2022/08/22 00:49:49;;;;;;;4.50;1.55;;;;;;;;;;5076573;28;20021;-65
2022/08/22 00:52:20;;;;;;;3.58;1.67;;;;;;;;;;5077792;28;20512;-63
2022/08/22 00:54:54;;;;;;;4.45;1.65;;;;;;;;;;5086428;28;20028;-63
2022/08/22 00:57:30;;;;;;;6.82;1.92;;;;;;;;;;5082879;28;21035;-64
2022/08/22 01:00:13;;;;;;;6.30;2.08;;;;;;;;;;5088480;28;20047;-66
2022/08/22 01:02:41;;;;;;;5.10;1.90;;;;;;;;;;5085528;28;20065;-65
2022/08/22 01:05:22;;;;;;;4.88;1.52;;;;;;;;;;5085240;28;20008;-65
2022/08/22 01:08:01;;;;;;;5.45;1.70;;;;;;;;;;5085602;28;20072;-64
2022/08/22 01:10:34;;;;;;;16.88;2.38;;;;;;;;;;5088958;28;20020;-64
2022/08/22 01:13:09;;;;;;;4.35;1.85;;;;;;;;;;5081658;28;20027;-65
2022/08/22 01:15:35;;;;;;;4.28;1.38;;;;;;;;;;5087120;28;20020;-65
2022/08/22 01:18:03;;;;;;;6.72;1.73;;;;;;;;;;5090073;28;20024;-64
2022/08/22 01:20:37;;;;;;;7.15;2.13;;;;;;;;;;5084976;28;20020;-64
2022/08/22 01:23:14;;;;;;;7.85;1.98;;;;;;;;;;5090249;28;20016;-65
2022/08/22 01:25:58;;;;;;;7.10;1.98;;;;;;;;;;5083435;28;20016;-65
2022/08/22 01:28:36;;;;;;;7.25;2.00;;;;;;;;;;5082129;28;20020;-65
2022/08/22 01:31:01;;;;;;;6.00;1.75;;;;;;;;;;5080587;28;20083;-65
2022/08/22 01:33:38;;;;;;;5.10;1.52;;;;;;;;;;5085225;28;20095;-65
2022/08/22 01:36:22;;;;;;;4.78;1.85;;;;;;;;;;5079769;28;20449;-64
2022/08/22 01:38:56;;;;;;;5.05;1.90;;;;;;;;;;5088598;28;20054;-65
2022/08/22 01:41:37;;;;;;;4.43;1.55;;;;;;;;;;5088732;28;20020;-65
2022/08/22 01:44:10;;;;;;;6.03;1.65;;;;;;;;;;5078850;28;20012;-65
2022/08/22 01:46:44;;;;;;;4.65;2.05;;;;;;;;;;5090494;28;20099;-65
2022/08/22 01:49:28;;;;;;;4.53;1.58;;;;;;;;;;5075260;28;20016;-65
2022/08/22 01:52:19;;;;;;;7.35;2.28;;;;;;;;;;5086503;28;20016;-65
2022/08/22 01:54:54;;;;;;;5.70;1.73;;;;;;;;;;5049592;28;20431;-64
2022/08/22 01:57:21;;;;;;;10.65;2.30;;;;;;;;;;5087117;28;20393;-64
2022/08/22 01:59:48;;;;;;;10.07;2.00;;;;;;;;;;5088697;28;20023;-64
2022/08/22 02:02:16;;;;;;;6.22;2.15;;;;;;;;;;5085319;28;20031;-64
2022/08/22 02:04:41;;;;;;;6.43;2.08;;;;;;;;;;5083150;28;20529;-64
2022/08/22 02:07:13;;;;;;;5.65;2.30;;;;;;;;;;5081136;28;20022;-64
2022/08/22 02:09:57;;;;;;;6.28;2.40;;;;;;;;;;5086194;28;20449;-64
2022/08/22 02:12:40;;;;;;;6.65;2.50;;;;;;;;;;5083076;28;20031;-64
2022/08/22 02:15:17;;;;;;;3.72;2.00;;;;;;;;;;5086168;28;20016;-64
2022/08/22 02:18:05;;;;;;;4.65;1.92;;;;;;;;;;5079582;28;20077;-64
2022/08/22 02:20:33;;;;;;;6.72;2.47;;;;;;;;;;5062805;28;20037;-64
2022/08/22 02:23:25;;;;;;;7.43;2.30;;;;;;;;;;5076504;28;20024;-64
2022/08/22 02:26:00;;;;;;;6.18;2.58;;;;;;;;;;5079710;28;20028;-64
2022/08/22 02:28:37;;;;;;;7.40;2.67;;;;;;;;;;5084101;28;20028;-65
2022/08/22 02:31:10;;;;;;;14.35;2.42;;;;;;;;;;5084346;28;20017;-64
2022/08/22 02:33:48;;;;;;;6.70;2.25;;;;;;;;;;5089290;28;20042;-66
2022/08/22 02:36:13;;;;;;;5.95;2.35;;;;;;;;;;5073996;28;20444;-63
2022/08/22 02:38:49;;;;;;;5.35;2.28;;;;;;;;;;5086065;28;20027;-64
2022/08/22 02:41:14;;;;;;;10.85;3.13;;;;;;;;;;5081434;28;20078;-65
2022/08/22 02:43:52;;;;;;;6.33;2.03;;;;;;;;;;5086441;28;20471;-64
2022/08/22 02:46:28;;;;;;;5.05;2.28;;;;;;;;;;5057957;28;20350;-64
2022/08/22 02:49:01;;;;;;;6.13;2.53;;;;;;;;;;5087510;28;20070;-65
2022/08/22 02:51:32;;;;;;;4.07;1.90;;;;;;;;;;5090593;28;20013;-64
2022/08/22 02:54:09;;;;;;;4.57;2.38;;;;;;;;;;5084865;28;20020;-64
2022/08/22 02:56:39;;;;;;;4.40;2.00;;;;;;;;;;5079559;28;20032;-64
2022/08/22 02:59:25;;;;;;;7.30;2.20;;;;;;;;;;5086903;28;20052;-64
2022/08/22 03:01:50;;;;;;;4.80;2.40;;;;;;;;;;5064435;28;20507;-64
2022/08/22 03:04:27;;;;;;;4.97;2.05;;;;;;;;;;5088490;28;20020;-64
2022/08/22 03:07:05;;;;;;;6.88;2.03;;;;;;;;;;5082077;28;20046;-64
2022/08/22 03:09:36;;;;;;;5.43;2.25;;;;;;;;;;5083249;28;20080;-64
2022/08/22 03:12:24;;;;;;;4.25;2.45;;;;;;;;;;5081335;28;20081;-64
2022/08/22 03:14:59;;;;;;;7.60;2.70;;;;;;;;;;5088425;28;20028;-63
2022/08/22 03:17:37;;;;;;;7.72;2.40;;;;;;;;;;5084410;28;20028;-66
2022/08/22 03:20:11;;;;;;;8.15;3.72;;;;;;;;;;5077510;28;20381;-65
2022/08/22 03:22:42;;;;;;;11.43;3.53;;;;;;;;;;5074126;28;20055;-64
2022/08/22 03:25:16;;;;;;;5.50;2.63;;;;;;;;;;5079672;28;20020;-66
2022/08/22 03:27:42;;;;;;;13.15;2.45;;;;;;;;;;5082269;28;20039;-65
2022/08/22 03:30:07;;;;;;;9.60;3.03;;;;;;;;;;5082015;28;20020;-63
2022/08/22 03:32:46;;;;;;;10.55;3.28;;;;;;;;;;5085365;28;20024;-64
2022/08/22 03:35:21;;;;;;;4.05;2.22;;;;;;;;;;5083163;28;20028;-64
2022/08/22 03:37:48;;;;;;;5.30;2.53;;;;;;;;;;5088100;28;20020;-64
2022/08/22 03:40:23;;;;;;;8.75;2.55;;;;;;;;;;5084695;28;20035;-64
2022/08/22 03:42:48;;;;;;;8.48;2.65;;;;;;;;;;5083511;28;20034;-64
2022/08/22 03:45:33;;;;;;;5.57;2.75;;;;;;;;;;5092632;28;20095;-65
2022/08/22 03:48:17;;;;;;;4.90;2.30;;;;;;;;;;5090684;28;20035;-63
2022/08/22 03:51:01;;;;;;;13.60;3.38;;;;;;;;;;5082103;28;20417;-65
2022/08/22 03:53:34;;;;;;;5.45;2.50;;;;;;;;;;5089417;28;20026;-64
2022/08/22 03:56:18;;;;;;;8.80;2.65;;;;;;;;;;5089963;28;20484;-64
2022/08/22 03:59:03;;;;;;;6.30;2.50;;;;;;;;;;5081935;28;20499;-64
2022/08/22 04:01:38;;;;;;;8.32;3.22;;;;;;;;;;5089553;28;20039;-64
2022/08/22 04:04:22;;;;;;;5.13;2.45;;;;;;;;;;5089424;28;20020;-64
2022/08/22 04:06:55;;;;;;;8.20;2.90;;;;;;;;;;5088519;28;20027;-64
2022/08/22 04:09:29;;;;;;;3.63;2.45;;;;;;;;;;5085487;28;20082;-64
2022/08/22 04:12:00;;;;;;;12.65;3.17;;;;;;;;;;5081260;28;20026;-64
2022/08/22 04:14:40;;;;;;;10.10;3.22;;;;;;;;;;5088725;28;20020;-64
2022/08/22 04:17:19;;;;;;;8.82;3.35;;;;;;;;;;5083579;28;20040;-64
2022/08/22 04:20:03;;;;;;;4.75;3.30;;;;;;;;;;5091394;28;20031;-65
2022/08/22 04:23:08;;;;;;;6.10;3.22;;;;;;;;;;5084824;28;20024;-64
2022/08/22 04:25:37;;;;;;;9.23;3.40;;;;;;;;;;5032574;28;20025;-65
2022/08/22 04:28:08;;;;;;;6.25;2.97;;;;;;;;;;5030662;28;20028;-64
2022/08/22 04:30:37;;;;;;;8.75;3.58;;;;;;;;;;5058674;28;20036;-63
2022/08/22 04:33:13;;;;;;;12.68;3.25;;;;;;;;;;5088478;28;20025;-64
2022/08/22 04:35:41;;;;;;;7.85;3.28;;;;;;;;;;5085234;28;20052;-64
2022/08/22 04:38:11;;;;;;;9.88;3.47;;;;;;;;;;5089758;28;20078;-64
2022/08/22 04:40:50;;;;;;;7.57;3.37;;;;;;;;;;5084848;28;20135;-65
2022/08/22 04:43:21;;;;;;;10.05;3.25;;;;;;;;;;5079857;28;20274;-64
2022/08/22 04:45:57;;;;;;;6.60;2.65;;;;;;;;;;5086842;28;20024;-65
2022/08/22 04:48:28;;;;;;;8.18;3.42;;;;;;;;;;5084557;28;20399;-63
2022/08/22 04:51:02;;;;;;;13.45;3.15;;;;;;;;;;5084299;28;20019;-65
2022/08/22 04:53:36;;;;;;;16.48;4.47;;;;;;;;;;5089553;28;20940;-65
2022/08/22 04:56:21;;;;;;;11.02;3.20;;;;;;;;;;5088436;28;20070;-66
2022/08/22 04:58:52;;;;;;;7.82;3.17;;;;;;;;;;5080996;28;20020;-62
2022/08/22 05:01:24;;;;;;;12.73;3.03;;;;;;;;;;5080876;28;20047;-64
2022/08/22 05:04:00;;;;;;;22.83;4.28;;;;;;;;;;5078872;28;20457;-65
2022/08/22 05:06:28;;;;;;;10.32;4.18;;;;;;;;;;5082106;28;20016;-64
2022/08/22 05:08:58;;;;;;;5.55;3.20;;;;;;;;;;5091505;28;20018;-65
2022/08/22 05:11:23;;;;;;;8.13;3.47;;;;;;;;;;5080980;28;20021;-64
2022/08/22 05:13:53;;;;;;;6.28;3.30;;;;;;;;;;5087448;28;20528;-65
2022/08/22 05:16:18;;;;;;;;;;;;;;;;;;5087109;28;20035;-65
2022/08/22 05:18:46;;;;;;;11.38;3.65;;;;;;;;;;5081875;28;19904;-64
2022/08/22 05:21:13;;;;;;;13.63;3.63;;;;;;;;;;5080931;28;20022;-65
2022/08/22 05:23:41;;;;;;;5.07;3.55;;;;;;;;;;5075918;28;20028;-64
2022/08/22 05:26:07;;;;;;;11.32;3.88;;;;;;;;;;5080188;28;20047;-65
2022/08/22 05:28:36;;;;;;;11.70;4.07;;;;;;;;;;5076074;28;20162;-64
2022/08/22 05:31:03;;;;;;;7.93;3.47;;;;;;;;;;5089490;28;20024;-64
2022/08/22 05:33:32;;;;;;;13.55;4.00;;;;;;;;;;5080998;28;20020;-64
2022/08/22 05:36:09;;;;;;;7.88;4.82;;;;;;;;;;5089072;28;20411;-65
2022/08/22 05:38:36;;;;;;;14.65;4.85;;;;;;;;;;5090797;28;20032;-65
2022/08/22 05:41:08;;;;;;;13.65;4.45;;;;;;;;;;5088625;28;20442;-64
2022/08/22 05:43:36;;;;;;;13.68;4.68;;;;;;;;;;5082191;28;20441;-65
2022/08/22 05:46:02;;;;;;;10.40;4.28;;;;;;;;;;5084551;28;20043;-65
2022/08/22 05:48:36;;;;;;;12.98;4.60;;;;;;;;;;5081478;28;20038;-65
2022/08/22 05:51:14;;;;;;;13.98;4.18;;;;;;;;;;5077738;28;20099;-65
2022/08/22 05:53:42;;;;;;;17.00;4.43;;;;;;;;;;5077653;28;20039;-65
2022/08/22 05:56:07;;;;;;;13.43;4.50;;;;;;;;;;5088196;28;20016;-64
2022/08/22 05:58:38;;;;;;;13.23;5.43;;;;;;;;;;5077558;28;20089;-65
2022/08/22 06:01:10;;;;;;;15.77;5.18;;;;;;;;;;5087648;28;20028;-65
2022/08/22 06:03:37;;;;;;;10.50;4.25;;;;;;;;;;5085500;28;20082;-65
2022/08/22 06:06:08;;;;;;;16.92;4.47;;;;;;;;;;5085281;28;20040;-65
2022/08/22 06:08:35;;;;;;;10.57;4.80;;;;;;;;;;5081977;28;20023;-64
2022/08/22 06:11:08;;;;;;;12.80;4.28;;;;;;;;;;5088766;28;20073;-65
2022/08/22 06:13:33;;;;;;;13.65;4.38;;;;;;;;;;5077114;28;20388;-65
2022/08/22 06:16:16;;;;;;;12.20;4.80;;;;;;;;;;5088523;28;20024;-65
2022/08/22 06:18:42;;;;;;;13.85;5.30;;;;;;;;;;5082218;28;20646;-66
2022/08/22 06:21:30;;;;;;;16.23;5.10;;;;;;;;;;5086100;28;20028;-65
2022/08/22 06:23:57;;;;;;;15.52;3.78;;;;;;;;;;5085087;28;20081;-65
2022/08/22 06:26:24;;;;;;;12.32;4.18;;;;;;;;;;5087172;28;20385;-64
2022/08/22 06:28:51;;;;;;;8.85;3.80;;;;;;;;;;5086481;28;20055;-64
2022/08/22 06:31:22;;;;;;;11.60;4.82;;;;;;;;;;5083596;28;20047;-64
2022/08/22 06:33:47;;;;;;;;;;;;;;;;;;5076793;28;20027;-64
2022/08/22 06:36:29;;;;;;;9.98;4.15;;;;;;;;;;5079509;28;19994;-64
2022/08/22 06:39:15;;;;;;;9.52;3.95;;;;;;;;;;5089267;28;20035;-64
2022/08/22 06:41:53;;;;;;;17.10;4.65;;;;;;;;;;5083083;28;20059;-64
2022/08/22 06:44:21;;;;;;;12.45;5.25;;;;;;;;;;5078851;28;20036;-64
2022/08/22 06:46:47;;;;;;;14.48;4.50;;;;;;;;;;5078083;28;20024;-64
2022/08/22 06:49:12;;;;;;;14.20;5.35;;;;;;;;;;5088490;28;20028;-64
2022/08/22 06:51:38;;;;;;;14.02;4.90;;;;;;;;;;5082956;28;20023;-64
2022/08/22 06:54:06;;;;;;;12.85;4.43;;;;;;;;;;5074040;28;20362;-64
2022/08/22 06:56:34;;;;;;;16.77;4.07;;;;;;;;;;5085241;28;20084;-64
2022/08/22 06:59:01;;;;;;;8.20;3.92;;;;;;;;;;5085851;28;20437;-65
2022/08/22 07:01:31;;;;;;;12.45;4.20;;;;;;;;;;5090128;28;20056;-65
2022/08/22 07:03:58;;;;;;;14.30;4.68;;;;;;;;;;5085370;28;20108;-65
2022/08/22 07:06:36;;;;;;;12.30;4.03;;;;;;;;;;5091988;28;20024;-66
2022/08/22 07:09:03;;;;;;;12.95;5.22;;;;;;;;;;5090332;28;20129;-65
2022/08/22 07:11:33;;;;;;;11.50;3.75;;;;;;;;;;5090787;28;20055;-65
2022/08/22 07:14:12;;;;;;;16.60;3.97;;;;;;;;;;5087977;28;20103;-65
2022/08/22 07:16:37;;;;;;;13.02;4.03;;;;;;;;;;5082496;28;20028;-65
2022/08/22 07:19:03;;;;;;;13.80;4.30;;;;;;;;;;5089340;28;20028;-65
2022/08/22 07:21:30;;;;;;;12.88;3.70;;;;;;;;;;5085458;28;20107;-65
2022/08/22 07:23:57;;;;;;;11.38;3.50;;;;;;;;;;5088118;28;20027;-65
2022/08/22 07:26:25;;;;;;;8.18;3.53;;;;;;;;;;5090889;28;20027;-64
2022/08/22 07:29:09;;;;;;;8.35;3.40;;;;;;;;;;5091069;28;20012;-66
2022/08/22 07:31:52;;;;;;;12.05;4.05;;;;;;;;;;5084902;28;20387;-66
2022/08/22 07:34:21;;;;;;;17.80;3.80;;;;;;;;;;5090482;28;20020;-66
2022/08/22 07:37:07;;;;;;;8.20;3.25;;;;;;;;;;5089541;28;20476;-66
2022/08/22 07:39:37;;;;;;;9.48;3.63;;;;;;;;;;5092270;28;20671;-66
2022/08/22 07:42:11;;;;;;;11.40;3.03;;;;;;;;;;5086055;28;20009;-67
2022/08/22 07:44:43;;;;;;;8.70;2.25;;;;;;;;;;5077640;28;20040;-66
2022/08/22 07:47:12;;;;;;;9.63;3.58;;;;;;;;;;5093548;28;20471;-66
2022/08/22 07:49:42;;;;;;;10.32;2.97;;;;;;;;;;5091783;28;20050;-66
2022/08/22 07:52:09;;;;;;;16.02;2.90;;;;;;;;;;5091732;28;20012;-66
2022/08/22 07:54:34;;;;;;;19.27;3.38;;;;;;;;;;5077709;28;20484;-66
2022/08/22 07:57:05;;;;;;;4.57;2.50;;;;;;;;;;5089891;28;20027;-66
2022/08/22 07:59:32;;;;;;;11.85;2.60;;;;;;;;;;5087350;28;20423;-66
2022/08/22 08:01:59;;;;;;;14.55;3.20;;;;;;;;;;5087899;28;20016;-66
2022/08/22 08:04:27;;;;;;;6.45;2.70;;;;;;;;;;5085241;28;20031;-65
2022/08/22 08:06:54;;;;;;;11.02;3.88;;;;;;;;;;5089483;28;20099;-67
2022/08/22 08:09:20;;;;;;;9.88;3.25;;;;;;;;;;5091714;28;20124;-66
2022/08/22 08:11:47;;;;;;;10.90;3.05;;;;;;;;;;5085029;28;20289;-66
2022/08/22 08:14:14;;;;;;;15.95;3.45;;;;;;;;;;5083974;28;20496;-66
2022/08/22 08:16:46;;;;;;;8.70;2.75;;;;;;;;;;5086465;28;20388;-67
2022/08/22 08:19:13;;;;;;;14.32;2.80;;;;;;;;;;5083922;28;20027;-67
2022/08/22 08:21:41;;;;;;;8.70;2.35;;;;;;;;;;5090334;28;20020;-66
2022/08/22 08:24:10;;;;;;;10.27;2.05;;;;;;;;;;5086572;28;20512;-66
2022/08/22 08:28:32;;;;;;;8.00;3.03;;;;;;;;;;5086332;28;20097;-66
2022/08/22 08:29:27;;;;;;;10.52;2.38;;;;;;;;;;5080307;28;20480;-65
2022/08/22 08:31:53;;;;;;;7.45;1.70;;;;;;;;;;5082890;28;20020;-65
2022/08/22 08:34:21;;;;;;;6.95;1.98;;;;;;;;;;5086890;28;20055;-65
2022/08/22 08:36:49;;;;;;;7.75;2.10;;;;;;;;;;5081240;28;20496;-66
2022/08/22 08:39:19;;;;;;;6.40;1.95;;;;;;;;;;5087404;28;20488;-65
2022/08/22 08:41:45;;;;;;;2.72;1.50;;;;;;;;;;5091386;28;20067;-65
2022/08/22 08:44:13;;;;;;;10.80;2.30;;;;;;;;;;5092517;28;20019;-65
2022/08/22 08:46:44;;;;;;;5.80;1.88;;;;;;;;;;5084677;28;20052;-65
2022/08/22 08:49:09;;;;;;;10.38;1.67;;;;;;;;;;5090715;28;20032;-64
2022/08/22 08:51:51;;;;;;;9.57;2.35;;;;;;;;;;5081298;28;20024;-65
2022/08/22 08:54:16;;;;;;;8.43;2.25;;;;;;;;;;5082182;28;20028;-65
2022/08/22 08:57:00;;;;;;;6.03;1.73;;;;;;;;;;5084224;28;21935;-66
2022/08/22 08:59:25;;;;;;;9.13;1.67;;;;;;;;;;5077115;28;20929;-68
2022/08/22 09:02:09;;;;;;;8.23;2.03;;;;;;;;;;5085714;28;20028;-64
2022/08/22 09:04:40;;;;;;;9.02;1.85;;;;;;;;;;5087383;28;20453;-65
2022/08/22 09:07:05;;;;;;;4.28;1.90;;;;;;;;;;5084018;28;20020;-64
2022/08/22 09:09:43;;;;;;;7.87;2.20;;;;;;;;;;5089443;28;20016;-64
2022/08/22 09:12:28;;;;;;;5.25;1.77;;;;;;;;;;5085862;28;20048;-65
2022/08/22 09:14:56;;;;;;;6.80;2.13;;;;;;;;;;5086627;28;20034;-64
2022/08/22 09:17:27;;;;;;;5.70;1.40;;;;;;;;;;5086636;28;20024;-65
2022/08/22 09:20:02;;;;;;;9.13;1.83;;;;;;;;;;5086431;28;20035;-65
2022/08/22 09:22:42;;;;;;;8.52;2.05;;;;;;;;;;5090378;28;20392;-65
2022/08/22 09:25:26;;;;;;;4.13;1.20;;;;;;;;;;5086669;28;20110;-66
2022/08/22 09:27:51;;;;;;;7.57;1.73;;;;;;;;;;5089889;28;20353;-66
2022/08/22 09:30:18;;;;;;;5.77;1.50;;;;;;;;;;5087416;28;20475;-66
2022/08/22 09:32:50;;;;;;;4.50;1.90;;;;;;;;;;5084642;28;20404;-66
2022/08/22 09:35:35;;;;;;;9.45;2.05;;;;;;;;;;5079748;28;20020;-66
2022/08/22 09:38:00;;;;;;;6.20;1.50;;;;;;;;;;5081369;28;20035;-66
2022/08/22 09:40:31;;;;;;;2.55;1.38;;;;;;;;;;5081939;28;20024;-66
2022/08/22 09:42:56;;;;;;;6.30;1.55;;;;;;;;;;5089949;28;20068;-66
2022/08/22 09:45:21;;;;;;;5.65;1.35;;;;;;;;;;5086753;28;20032;-66
2022/08/22 09:47:54;;;;;;;5.40;1.40;;;;;;;;;;5086511;28;20028;-66
2022/08/22 09:50:23;;;;;;;4.15;1.13;;;;;;;;;;5081493;28;20285;-66
2022/08/22 09:53:01;;;;;;;11.20;1.50;;;;;;;;;;5088931;28;20100;-66
2022/08/22 09:55:26;;;;;;;6.72;1.85;;;;;;;;;;5083438;28;20039;-65
2022/08/22 09:58:05;;;;;;;5.75;2.15;;;;;;;;;;5083312;28;20066;-67
2022/08/22 10:00:34;;;;;;;3.90;1.30;;;;;;;;;;5082912;28;20034;-64
2022/08/22 10:03:25;;;;;;;3.50;1.52;;;;;;;;;;5089676;28;20355;-65
2022/08/22 10:05:55;;;;;;;5.82;1.70;;;;;;;;;;5084821;28;20488;-65
2022/08/22 10:08:23;;;;;;;4.47;1.40;;;;;;;;;;5089185;28;20020;-66
2022/08/22 10:10:48;;;;;;;4.47;1.15;;;;;;;;;;5082731;28;20385;-68
2022/08/22 10:13:32;;;;;;;5.07;1.43;;;;;;;;;;5087871;28;20035;-66
2022/08/22 10:16:11;;;;;;;5.57;1.50;;;;;;;;;;5079860;28;20269;-65
2022/08/22 10:18:43;;;;;;;7.28;1.70;;;;;;;;;;5072337;28;20020;-65
2022/08/22 10:21:09;;;;;;;3.00;1.63;;;;;;;;;;5083218;28;20499;-65
2022/08/22 10:23:37;;;;;;;5.47;1.70;;;;;;;;;;5085093;28;20027;-65
2022/08/22 10:26:40;;;;;;;6.72;2.17;;;;;;;;;;5084611;28;20270;-67
2022/08/22 10:29:16;;;;;;;3.88;1.65;;;;;;;;;;5030495;28;20029;-65
2022/08/22 10:32:01;;;;;;;5.82;1.60;;;;;;;;;;5028088;28;20037;-65
2022/08/22 10:34:35;;;;;;;4.93;1.67;;;;;;;;;;5059002;28;20523;-65
2022/08/22 10:37:08;;;;;;;5.90;1.98;;;;;;;;;;5084591;28;20384;-66
2022/08/22 10:39:40;;;;;;;2.70;1.48;;;;;;;;;;5085122;28;20082;-66
2022/08/22 10:42:18;;;;;;;3.58;1.65;;;;;;;;;;5090184;28;20098;-66
2022/08/22 10:44:56;;;;;;;2.97;1.40;;;;;;;;;;5082106;28;20021;-67
2022/08/22 10:47:24;;;;;;;6.07;2.53;;;;;;;;;;5077343;28;20442;-67
2022/08/22 10:49:49;;;;;;;6.63;1.90;;;;;;;;;;5083576;28;20020;-67
2022/08/22 10:52:17;;;;;;;5.25;1.75;;;;;;;;;;5091144;28;20020;-67
2022/08/22 10:54:48;;;;;;;4.18;1.50;;;;;;;;;;5080181;28;20032;-67
2022/08/22 10:57:32;;;;;;;6.07;1.48;;;;;;;;;;5090902;28;20073;-66
2022/08/22 11:00:13;;;;;;;2.85;1.35;;;;;;;;;;5087707;28;20480;-67
2022/08/22 11:02:42;;;;;;;4.47;1.90;;;;;;;;;;5082890;28;20016;-67
2022/08/22 11:05:08;;;;;;;;;;;;;;;;;;5076486;28;20062;-67
2022/08/22 11:07:47;;;;;;;6.10;1.50;;;;;;;;;;5090310;28;19955;-67
2022/08/22 11:10:33;;;;;;;8.48;2.50;;;;;;;;;;5091235;28;20106;-67
2022/08/22 11:13:11;;;;;;;4.10;1.77;;;;;;;;;;5078158;28;20051;-65
2022/08/22 11:15:42;;;;;;;9.00;1.40;;;;;;;;;;5078877;28;20041;-67
2022/08/22 11:18:10;;;;;;;5.85;1.63;;;;;;;;;;5088319;28;20073;-67
2022/08/22 11:20:35;;;;;;;5.07;1.60;;;;;;;;;;5083889;28;20036;-68
2022/08/22 11:23:03;;;;;;;3.10;1.87;;;;;;;;;;5080774;28;20016;-64
2022/08/22 11:25:35;;;;;;;4.03;1.50;;;;;;;;;;5082737;28;20028;-67
2022/08/22 11:28:11;;;;;;;7.10;1.95;;;;;;;;;;5088690;28;20273;-66
2022/08/22 11:30:43;;;;;;;3.67;1.70;;;;;;;;;;5081643;28;20017;-66
2022/08/22 11:33:17;;;;;;;6.38;1.40;;;;;;;;;;5084915;28;20020;-65
2022/08/22 11:35:50;;;;;;;5.20;1.40;;;;;;;;;;5083961;28;20012;-66
2022/08/22 11:38:15;;;;;;;7.18;1.33;;;;;;;;;;5075385;28;20057;-67
2022/08/22 11:40:56;;;;;;;6.47;1.73;;;;;;;;;;5084328;28;20426;-65
2022/08/22 11:43:31;;;;;;;7.50;1.55;;;;;;;;;;5085998;28;20024;-67
2022/08/22 11:45:58;;;;;;;6.53;1.95;;;;;;;;;;5082296;28;20107;-67
2022/08/22 11:48:42;;;;;;;5.70;1.52;;;;;;;;;;5088157;28;20016;-67
2022/08/22 11:51:07;;;;;;;5.35;1.70;;;;;;;;;;5090417;28;20032;-66
2022/08/22 11:53:38;;;;;;;5.70;1.50;;;;;;;;;;5087755;28;20023;-64
2022/08/22 11:56:07;;;;;;;6.80;2.00;;;;;;;;;;5083749;28;20385;-65
2022/08/22 11:58:32;;;;;;;2.83;1.40;;;;;;;;;;5080639;28;20111;-64
2022/08/22 12:01:00;;;;;;;3.80;1.30;;;;;;;;;;5086611;28;20536;-67
2022/08/22 12:03:25;;;;;;;5.80;2.33;;;;;;;;;;5084043;28;20024;-66
2022/08/22 12:05:55;;;;;;;7.97;2.10;;;;;;;;;;5091234;28;20077;-65
2022/08/22 12:08:23;;;;;;;10.50;2.50;;;;;;;;;;5090382;28;20055;-66
2022/08/22 12:11:02;;;;;;;8.43;2.65;;;;;;;;;;5083661;28;20366;-65
2022/08/22 12:13:36;;;;;;;5.53;2.25;;;;;;;;;;5090583;28;20487;-65
2022/08/22 12:16:11;;;;;;;9.88;2.00;;;;;;;;;;5089785;28;20051;-65
2022/08/22 12:18:39;;;;;;;7.53;2.40;;;;;;;;;;5088544;28;20031;-67
2022/08/22 12:21:23;;;;;;;4.97;2.15;;;;;;;;;;5085756;28;20029;-66
2022/08/22 12:23:54;;;;;;;5.45;2.10;;;;;;;;;;5084100;28;20020;-65
2022/08/22 12:26:34;;;;;;;3.42;1.60;;;;;;;;;;5084654;28;20024;-66
2022/08/22 12:29:08;;;;;;;7.78;2.10;;;;;;;;;;5087976;28;20068;-66
2022/08/22 12:32:05;;;;;;;4.25;2.08;;;;;;;;;;5081041;28;20497;-66
2022/08/22 12:34:42;;;;;;;3.15;1.50;;;;;;;;;;5077185;28;20071;-67
2022/08/22 12:37:41;;;;;;;8.40;1.80;;;;;;;;;;5085250;28;20476;-65
2022/08/22 12:40:24;;;;;;;7.05;2.30;;;;;;;;;;5049498;28;20043;-64
2022/08/22 12:43:15;;;;;;;5.03;2.10;;;;;;;;;;5089457;28;20043;-65
2022/08/22 12:45:41;;;;;;;8.63;2.05;;;;;;;;;;5079564;28;20050;-65
2022/08/22 12:48:06;;;;;;;2.57;1.30;;;;;;;;;;5087944;28;20016;-64
2022/08/22 12:51:06;;;;;;;7.80;2.38;;;;;;;;;;5084539;28;20313;-66
2022/08/22 12:53:55;;;;;;;5.85;2.33;;;;;;;;;;5022484;28;20033;-67
2022/08/22 12:56:35;;;;;;;12.87;2.73;;;;;;;;;;5075977;28;20035;-65
2022/08/22 12:59:03;;;;;;;5.13;2.10;;;;;;;;;;5091326;28;20056;-65
2022/08/22 13:01:33;;;;;;;3.67;2.03;;;;;;;;;;5084478;28;20108;-67
2022/08/22 13:03:58;;;;;;;;;;;;;;;;;;5081582;28;20077;-66
2022/08/22 13:06:36;;;;;;;7.97;2.38;;;;;;;;;;5084893;28;19908;-67
2022/08/22 13:09:10;;;;;;;6.88;2.47;;;;;;;;;;5088460;28;20086;-67
2022/08/22 13:11:36;;;;;;;7.38;2.90;;;;;;;;;;5091036;28;20024;-65
2022/08/22 13:14:01;;;;;;;4.50;2.13;;;;;;;;;;5078126;28;20024;-67
2022/08/22 13:16:35;;;;;;;8.80;2.38;;;;;;;;;;5087797;28;20035;-66
2022/08/22 13:19:03;;;;;;;5.63;2.15;;;;;;;;;;5089784;28;20102;-67
2022/08/22 13:21:30;;;;;;;10.85;2.67;;;;;;;;;;5084881;28;20031;-67
2022/08/22 13:23:57;;;;;;;4.25;1.95;;;;;;;;;;5084656;28;20016;-67
2022/08/22 13:26:26;;;;;;;8.60;2.45;;;;;;;;;;5083161;28;20133;-67
2022/08/22 13:28:54;;;;;;;13.60;2.40;;;;;;;;;;5074286;28;20098;-67
2022/08/22 13:31:23;;;;;;;7.45;2.25;;;;;;;;;;5088641;28;20032;-66
2022/08/22 13:33:50;;;;;;;6.53;1.92;;;;;;;;;;5086496;28;20028;-67
2022/08/22 13:36:17;;;;;;;8.23;2.75;;;;;;;;;;5084529;28;20027;-67
2022/08/22 13:38:50;;;;;;;5.13;2.00;;;;;;;;;;5077047;28;20023;-67
2022/08/22 13:41:21;;;;;;;4.57;2.15;;;;;;;;;;5061099;28;20048;-67
2022/08/22 13:44:05;;;;;;;6.18;2.17;;;;;;;;;;5084499;28;20022;-67
2022/08/22 13:46:31;;;;;;;6.75;2.10;;;;;;;;;;5078717;28;20065;-65
2022/08/22 13:48:58;;;;;;;6.80;1.70;;;;;;;;;;5084219;28;20027;-64
2022/08/22 13:51:29;;;;;;;6.68;2.63;;;;;;;;;;5084199;28;20060;-67
2022/08/22 13:54:04;;;;;;;6.93;1.77;;;;;;;;;;5080929;28;20035;-65
2022/08/22 13:56:38;;;;;;;9.10;2.33;;;;;;;;;;5087969;28;20032;-65
2022/08/22 13:59:06;;;;;;;10.25;1.75;;;;;;;;;;5079356;28;20711;-67
2022/08/22 14:01:31;;;;;;;7.00;2.03;;;;;;;;;;5077511;28;20033;-65
2022/08/22 14:03:58;;;;;;;6.85;2.50;;;;;;;;;;5088646;28;20012;-65
2022/08/22 14:06:47;;;;;;;12.27;2.20;;;;;;;;;;5087703;28;20480;-64
2022/08/22 14:09:18;;;;;;;8.10;2.40;;;;;;;;;;5071611;28;20036;-64
2022/08/22 14:11:48;;;;;;;7.97;2.10;;;;;;;;;;5088404;28;20039;-65
2022/08/22 14:14:20;;;;;;;6.40;1.83;;;;;;;;;;5080159;28;20024;-64
2022/08/22 14:16:50;;;;;;;7.47;2.05;;;;;;;;;;5087595;28;20110;-65
2022/08/22 14:19:25;;;;;;;4.72;1.85;;;;;;;;;;5084463;28;20027;-65
2022/08/22 14:21:52;;;;;;;10.02;2.15;;;;;;;;;;5084259;28;20194;-65
2022/08/22 14:24:29;;;;;;;8.68;2.10;;;;;;;;;;5088074;28;20008;-67
2022/08/22 14:26:57;;;;;;;5.45;2.28;;;;;;;;;;5086996;28;20470;-64
2022/08/22 14:29:24;;;;;;;7.00;2.28;;;;;;;;;;5080324;28;20021;-66
2022/08/22 14:32:01;;;;;;;6.95;2.15;;;;;;;;;;5081533;28;20028;-67
2022/08/22 14:34:27;;;;;;;6.40;1.90;;;;;;;;;;5084589;28;20024;-65
2022/08/22 14:36:57;;;;;;;7.15;1.77;;;;;;;;;;5081892;28;20448;-66
2022/08/22 14:39:22;;;;;;;6.68;2.08;;;;;;;;;;5088241;28;20031;-66
2022/08/22 14:42:05;;;;;;;6.23;1.90;;;;;;;;;;5081693;28;20032;-66
2022/08/22 14:44:40;;;;;;;5.18;2.10;;;;;;;;;;5075129;28;20290;-66
2022/08/22 14:47:09;;;;;;;7.18;1.80;;;;;;;;;;5087477;28;20028;-66
2022/08/22 14:49:34;;;;;;;7.80;1.60;;;;;;;;;;5080869;28;20044;-66
2022/08/22 14:52:05;;;;;;;7.70;1.57;;;;;;;;;;5074574;28;20055;-66
2022/08/22 14:54:30;;;;;;;6.75;2.22;;;;;;;;;;5086588;28;20047;-67
2022/08/22 14:56:58;;;;;;;11.55;1.55;;;;;;;;;;5090188;28;20449;-66
2022/08/22 14:59:29;;;;;;;7.15;2.20;;;;;;;;;;5087809;28;20060;-67
2022/08/22 15:02:00;;;;;;;7.78;2.28;;;;;;;;;;5082880;28;20449;-67
2022/08/22 15:04:44;;;;;;;3.65;1.35;;;;;;;;;;5072709;28;20031;-67
2022/08/22 15:07:11;;;;;;;4.35;1.80;;;;;;;;;;5082888;28;20424;-67
2022/08/22 15:09:47;;;;;;;7.38;1.75;;;;;;;;;;5085295;28;20077;-67
2022/08/22 15:12:19;;;;;;;7.30;1.90;;;;;;;;;;5090086;28;20030;-66
2022/08/22 15:14:46;;;;;;;10.98;3.65;;;;;;;;;;5083016;28;20025;-67
2022/08/22 15:17:11;;;;;;;13.48;2.40;;;;;;;;;;5083838;28;20016;-65